地図

経路データ

SID SEASON NUMBER BASIN SUBBASIN NAME ISO_TIME NATURE LAT LON WMO_WIND WMO_PRES WMO_AGENCY TRACK_TYPE DIST2LAND LANDFALL IFLAG USA_AGENCY USA_ATCF_ID USA_LAT USA_LON USA_RECORD USA_STATUS USA_WIND USA_PRES USA_SSHS USA_R34_NE USA_R34_SE USA_R34_SW USA_R34_NW USA_R50_NE USA_R50_SE USA_R50_SW USA_R50_NW USA_R64_NE USA_R64_SE USA_R64_SW USA_R64_NW USA_POCI USA_ROCI USA_RMW USA_EYE TOKYO_LAT TOKYO_LON TOKYO_GRADE TOKYO_WIND TOKYO_PRES TOKYO_R50_DIR TOKYO_R50_LONG TOKYO_R50_SHORT TOKYO_R30_DIR TOKYO_R30_LONG TOKYO_R30_SHORT TOKYO_LAND CMA_LAT CMA_LON CMA_CAT CMA_WIND CMA_PRES HKO_LAT HKO_LON HKO_CAT HKO_WIND HKO_PRES NEWDELHI_LAT NEWDELHI_LON NEWDELHI_GRADE NEWDELHI_WIND NEWDELHI_PRES NEWDELHI_CI NEWDELHI_DP NEWDELHI_POCI REUNION_LAT REUNION_LON REUNION_TYPE REUNION_WIND REUNION_PRES REUNION_TNUM REUNION_CI REUNION_RMW REUNION_R34_NE REUNION_R34_SE REUNION_R34_SW REUNION_R34_NW REUNION_R50_NE REUNION_R50_SE REUNION_R50_SW REUNION_R50_NW REUNION_R64_NE REUNION_R64_SE REUNION_R64_SW REUNION_R64_NW BOM_LAT BOM_LON BOM_TYPE BOM_WIND BOM_PRES BOM_TNUM BOM_CI BOM_RMW BOM_R34_NE BOM_R34_SE BOM_R34_SW BOM_R34_NW BOM_R50_NE BOM_R50_SE BOM_R50_SW BOM_R50_NW BOM_R64_NE BOM_R64_SE BOM_R64_SW BOM_R64_NW BOM_ROCI BOM_POCI BOM_EYE BOM_POS_METHOD BOM_PRES_METHOD NADI_LAT NADI_LON NADI_CAT NADI_WIND NADI_PRES WELLINGTON_LAT WELLINGTON_LON WELLINGTON_WIND WELLINGTON_PRES DS824_LAT DS824_LON DS824_STAGE DS824_WIND DS824_PRES TD9636_LAT TD9636_LON TD9636_STAGE TD9636_WIND TD9636_PRES TD9635_LAT TD9635_LON TD9635_WIND TD9635_PRES TD9635_ROCI NEUMANN_LAT NEUMANN_LON NEUMANN_CLASS NEUMANN_WIND NEUMANN_PRES MLC_LAT MLC_LON MLC_CLASS MLC_WIND MLC_PRES USA_GUST BOM_GUST BOM_GUST_PER REUNION_GUST REUNION_GUST_PER USA_SEAHGT USA_SEARAD_NE USA_SEARAD_SE USA_SEARAD_SW USA_SEARAD_NW STORM_SPEED STORM_DIR
1857290N32325 1857 16 NA NA NOT_NAMED 1857-10-16 12:00:00 SS 32.0000 -35.5000 main 1839 1839 _____________O -1 32.0000 -35.5000 SS 35 3 15
1857290N32325 1857 16 NA NA NOT_NAMED 1857-10-16 15:00:00 SS 32.1625 -35.4501 main 1842 1833 _____________P -1 32.1625 -35.4501 SS 37 3 16
1857290N32325 1857 16 NA NA NOT_NAMED 1857-10-16 18:00:00 SS 32.3000 -35.4000 main 1835 1835 _____________O -1 32.3000 -35.4000 SS 40 3 20
1857290N32325 1857 16 NA NA NOT_NAMED 1857-10-16 21:00:00 SS 32.4000 -35.3500 main 1827 1827 _____________P -1 32.4000 -35.3500 SS 42 2 25
1857290N32325 1857 16 NA NA NOT_NAMED 1857-10-17 00:00:00 SS 32.5000 -35.3000 main 1829 1829 _____________O -1 32.5000 -35.3000 SS 45 3 20
1857290N32325 1857 16 NA NA NOT_NAMED 1857-10-17 03:00:00 SS 32.6500 -35.2500 main 1824 1824 _____________P -1 32.6500 -35.2500 SS 47 3 16
1857290N32325 1857 16 NA NA NOT_NAMED 1857-10-17 06:00:00 SS 32.8000 -35.2000 main 1826 1819 _____________O -1 32.8000 -35.2000 SS 50 3 18
1857290N32325 1857 16 NA NA NOT_NAMED 1857-10-17 09:00:00 SS 32.9075 -35.1425 main 1819 1819 _____________P -1 32.9075 -35.1425 SS 52 2 25
1857290N32325 1857 16 NA NA NOT_NAMED 1857-10-17 12:00:00 SS 33.0000 -35.1000 main 1822 1822 _____________O -1 33.0000 -35.1000 SS 55 2 13
1857290N32325 1857 16 NA NA NOT_NAMED 1857-10-17 15:00:00 SS 33.0925 -35.0999 main 1824 1824 _____________P -1 33.0925 -35.0999 SS 55 2 8
1857290N32325 1857 16 NA NA NOT_NAMED 1857-10-17 18:00:00 SS 33.2000 -35.1000 main 1826 1826 _____________O -1 33.2000 -35.1000 SS 55 3 9
1857290N32325 1857 16 NA NA NOT_NAMED 1857-10-17 21:00:00 SS 33.3425 -35.0501 main 1829 1822 _____________P -1 33.3425 -35.0501 SS 55 3 14
1857290N32325 1857 16 NA NA NOT_NAMED 1857-10-18 00:00:00 SS 33.5000 -35.0000 main 1825 1825 _____________O -1 33.5000 -35.0000 SS 55 3 6
1857290N32325 1857 16 NA NA NOT_NAMED 1857-10-18 03:00:00 SS 33.6575 -34.9925 main 1830 1830 _____________P -1 33.6575 -34.9925 SS 55 3 0
1857290N32325 1857 16 NA NA NOT_NAMED 1857-10-18 06:00:00 TS 33.8000 -35.0000 main 1833 1833 _____________O -1 33.8000 -35.0000 TS 55 2 354
1857290N32325 1857 16 NA NA NOT_NAMED 1857-10-18 09:00:00 TS 33.9000 -35.0000 main 1836 1836 _____________P -1 33.9000 -35.0000 TS 55 2 8
1857290N32325 1857 16 NA NA NOT_NAMED 1857-10-18 12:00:00 TS 34.0000 -35.0000 main 1839 1839 _____________O -1 34.0000 -35.0000 TS 55 3 2
1857290N32325 1857 16 NA NA NOT_NAMED 1857-10-18 15:00:00 TS 34.1500 -35.0000 main 1845 1842 _____________P -1 34.1500 -35.0000 TS 55 3 0
1857290N32325 1857 16 NA NA NOT_NAMED 1857-10-18 18:00:00 TS 34.3000 -35.0000 main 1848 1848 _____________O -1 34.3000 -35.0000 TS 55 3 2
1857290N32325 1857 16 NA NA NOT_NAMED 1857-10-18 21:00:00 TS 34.4000 -35.0000 main 1851 1851 _____________P -1 34.4000 -35.0000 TS 55 2 8
1857290N32325 1857 16 NA NA NOT_NAMED 1857-10-19 00:00:00 TS 34.5000 -35.0000 main 1854 1854 _____________O -1 34.5000 -35.0000 TS 55 3 2
1857290N32325 1857 16 NA NA NOT_NAMED 1857-10-19 03:00:00 TS 34.6500 -35.0000 main 1861 1861 _____________P -1 34.6500 -35.0000 TS 55 3 0
1857290N32325 1857 16 NA NA NOT_NAMED 1857-10-19 06:00:00 TS 34.8000 -35.0000 main 1864 1864 _____________O -1 34.8000 -35.0000 TS 55 3 358
1857290N32325 1857 16 NA NA NOT_NAMED 1857-10-19 09:00:00 TS 34.9000 -35.0075 main 1867 1867 _____________P -1 34.9000 -35.0075 TS 55 2 8
1857290N32325 1857 16 NA NA NOT_NAMED 1857-10-19 12:00:00 TS 35.0000 -35.0000 main 1871 1871 _____________O -1 35.0000 -35.0000 TS 55 2 11
1857290N32325 1857 16 NA NA NOT_NAMED 1857-10-19 15:00:00 TS 35.1425 -34.9575 main 1874 1870 _____________P -1 35.1425 -34.9575 TS 55 3 14
1857290N32325 1857 16 NA NA NOT_NAMED 1857-10-19 18:00:00 TS 35.3000 -34.9000 main 1873 1873 _____________O -1 35.3000 -34.9000 TS 55 3 15
1857290N32325 1857 16 NA NA NOT_NAMED 1857-10-19 21:00:00 TS 35.4500 -34.8500 main 1872 1868 _____________P -1 35.4500 -34.8500 TS 55 3 14
1857290N32325 1857 16 NA NA NOT_NAMED 1857-10-20 00:00:00 TS 35.6000 -34.8000 main 1876 1876 _____________O -1 35.6000 -34.8000 TS 55 3 14
1857290N32325 1857 16 NA NA NOT_NAMED 1857-10-20 03:00:00 TS 35.7500 -34.7500 main 1876 1876 _____________P -1 35.7500 -34.7500 TS 55 3 14
1857290N32325 1857 16 NA NA NOT_NAMED 1857-10-20 06:00:00 TS 35.9000 -34.7000 main 1880 1880 _____________O -1 35.9000 -34.7000 TS 55 3 16
1857290N32325 1857 16 NA NA NOT_NAMED 1857-10-20 09:00:00 TS 36.0425 -34.6500 main 1876 1876 _____________P -1 36.0425 -34.6500 TS 55 3 14
1857290N32325 1857 16 NA NA NOT_NAMED 1857-10-20 12:00:00 TS 36.2000 -34.6000 main 1884 1884 _____________O -1 36.2000 -34.6000 TS 55 4 13
1857290N32325 1857 16 NA NA NOT_NAMED 1857-10-20 15:00:00 TS 36.4000 -34.5500 main 1885 1885 _____________P -1 36.4000 -34.5500 TS 55 4 11
1857290N32325 1857 16 NA NA NOT_NAMED 1857-10-20 18:00:00 TS 36.6000 -34.5000 main 1894 1889 _____________O -1 36.6000 -34.5000 TS 55 4 13
1857290N32325 1857 16 NA NA NOT_NAMED 1857-10-20 21:00:00 TS 36.7575 -34.4500 main 1889 1881 _____________P -1 36.7575 -34.4500 TS 55 3 14
1857290N32325 1857 16 NA NA NOT_NAMED 1857-10-21 00:00:00 TS 36.9000 -34.4000 main 1881 1874 _____________O -1 36.9000 -34.4000 TS 55 3 16
1857290N32325 1857 16 NA NA NOT_NAMED 1857-10-21 03:00:00 TS 37.0500 -34.3500 main 1873 1866 _____________P -1 37.0500 -34.3500 TS 55 3 14
1857290N32325 1857 16 NA NA NOT_NAMED 1857-10-21 06:00:00 TS 37.2000 -34.3000 main 1866 1859 _____________O -1 37.2000 -34.3000 TS 55 3 12
1857290N32325 1857 16 NA NA NOT_NAMED 1857-10-21 09:00:00 TS 37.3124 -34.2721 main 1859 1851 _____________P -1 37.3124 -34.2721 TS 55 3 14
1857290N32325 1857 16 NA NA NOT_NAMED 1857-10-21 12:00:00 TS 37.5000 -34.2000 main 1851 1836 _____________O -1 37.5000 -34.2000 TS 55 6 20
1857290N32325 1857 16 NA NA NOT_NAMED 1857-10-21 15:00:00 TS 37.8701 -34.0228 main 1836 1822 _____________P -1 37.8701 -34.0228 TS 55 9 22
1857290N32325 1857 16 NA NA NOT_NAMED 1857-10-21 18:00:00 TS 38.3000 -33.8000 main 1822 1809 _____________O -1 38.3000 -33.8000 TS 55 8 23
1857290N32325 1857 16 NA NA NOT_NAMED 1857-10-21 21:00:00 TS 38.6499 -33.6071 main 1816 1804 _____________P -1 38.6499 -33.6071 TS 55 8 24
1857290N32325 1857 16 NA NA NOT_NAMED 1857-10-22 00:00:00 TS 39.0000 -33.4000 main 1804 1793 _____________O -1 39.0000 -33.4000 TS 55 8 25
1857290N32325 1857 16 NA NA NOT_NAMED 1857-10-22 03:00:00 TS 39.4000 -33.1501 main 1793 1788 _____________P -1 39.4000 -33.1501 TS 52 9 26
1857290N32325 1857 16 NA NA NOT_NAMED 1857-10-22 06:00:00 TS 39.8000 -32.9000 main 1789 1782 _____________O -1 39.8000 -32.9000 TS 50 8 25
1857290N32325 1857 16 NA NA NOT_NAMED 1857-10-22 09:00:00 TS 40.1423 -32.7067 main 1784 1772 _____________P -1 40.1423 -32.7067 TS 47 8 24
1857290N32325 1857 16 NA NA NOT_NAMED 1857-10-22 12:00:00 TS 40.5000 -32.5000 main 1773 1764 _____________O -1 40.5000 -32.5000 TS 45 9 25
1857290N32325 1857 16 NA NA NOT_NAMED 1857-10-22 15:00:00 TS 40.9350 -32.2150 main 1771 1761 _____________P -1 40.9350 -32.2150 TS 45 10 27
1857290N32325 1857 16 NA NA NOT_NAMED 1857-10-22 18:00:00 ET 41.4000 -31.9000 main 1764 1757 _____________O -1 41.4000 -31.9000 EX 45 10 27
1857290N32325 1857 16 NA NA NOT_NAMED 1857-10-22 21:00:00 ET 41.8500 -31.5922 main 1765 1759 _____________P -1 41.8500 -31.5922 EX 45 10 26
1857290N32325 1857 16 NA NA NOT_NAMED 1857-10-23 00:00:00 ET 42.3000 -31.3000 main 1761 1754 _____________O -1 42.3000 -31.3000 EX 45 10 24
1857290N32325 1857 16 NA NA NOT_NAMED 1857-10-23 03:00:00 ET 42.7573 -31.0494 main 1756 1734 _____________P -1 42.7573 -31.0494 EX 45 10 22
1857290N32325 1857 16 NA NA NOT_NAMED 1857-10-23 06:00:00 ET 43.2000 -30.8000 main 1734 1705 _____________O -1 43.2000 -30.8000 EX 45 989 9 25
1857290N32325 1857 16 NA NA NOT_NAMED 1857-10-23 09:00:00 ET 43.6074 -30.5145 main 1705 1678 _____________P -1 43.6074 -30.5145 EX 45 9 29
1857290N32325 1857 16 NA NA NOT_NAMED 1857-10-23 12:00:00 ET 44.0000 -30.2000 main 1678 1651 _____________O -1 44.0000 -30.2000 EX 45 9 31
1857290N32325 1857 16 NA NA NOT_NAMED 1857-10-23 15:00:00 ET 44.3977 -29.8586 main 1651 1600 _____________P -1 44.3977 -29.8586 EX 45 9 32
1857290N32325 1857 16 NA NA NOT_NAMED 1857-10-23 18:00:00 ET 44.8000 -29.5000 main 1600 _____________O -1 44.8000 -29.5000 EX 45 10 32

IBTrACS Databaseについて

本データベースは、米国NOAAが公開する1842年以降の世界の熱帯低気圧のベストトラックデータアーカイブInternational Best Track Archive for Climate Stewardship (IBTrACS)を、ウェブで閲覧しやすい形式に変換したものです。

最終更新日:2021-11-26